CAL066 RJTT-RJSK
Flight info
| Callsign | CAL066 |
|---|---|
| Flight time | 0h 45m |
| Altitude | 33000 |
| Route | BRUCE AGRIS Y11 YTE Y32 CHOKA |
| Aircraft | A359/H-SDE1E2E3FGHIJ1J2J3J4J5M1P2RWY/LB1D1 |
Departure
| Time | 2026-04-21 15:40 |
|---|---|
| Airport | Tokyo Haneda International Airport (RJTT) |
Arrival
| Time | 2026-04-21 16:25 |
|---|---|
| Airport | Akita Airport (RJSK) |
| Time | Latitude | Longitude | Altitude | Speed | Heading |
|---|---|---|---|---|---|
| 2026-04-21 15:22 | 35.55268 | 139.78877 | 29 ft | 0 kts | 243° |
| 2026-04-21 15:28 | 35.55288 | 139.78925 | 29 ft | 0 kts | 243° |
| 2026-04-21 15:28 | 35.55296 | 139.78952 | 28 ft | 0 kts | 147° |
| 2026-04-21 15:30 | 35.55285 | 139.78962 | 28 ft | 5 kts | 141° |
| 2026-04-21 15:31 | 35.55252 | 139.78994 | 29 ft | 8 kts | 141° |
| 2026-04-21 15:31 | 35.55201 | 139.79036 | 29 ft | 10 kts | 152° |
| 2026-04-21 15:31 | 35.55133 | 139.79080 | 29 ft | 12 kts | 152° |
| 2026-04-21 15:31 | 35.55054 | 139.79143 | 29 ft | 14 kts | 131° |
| 2026-04-21 15:32 | 35.55060 | 139.79255 | 29 ft | 15 kts | 64° |
| 2026-04-21 15:32 | 35.55042 | 139.79364 | 29 ft | 14 kts | 141° |
| 2026-04-21 15:32 | 35.54954 | 139.79438 | 29 ft | 16 kts | 148° |
| 2026-04-21 15:32 | 35.54864 | 139.79501 | 29 ft | 16 kts | 150° |
| 2026-04-21 15:33 | 35.54762 | 139.79571 | 29 ft | 18 kts | 150° |
| 2026-04-21 15:33 | 35.54650 | 139.79649 | 29 ft | 19 kts | 150° |
| 2026-04-21 15:33 | 35.54529 | 139.79733 | 29 ft | 20 kts | 150° |
| 2026-04-21 15:33 | 35.54409 | 139.79817 | 30 ft | 19 kts | 150° |
| 2026-04-21 15:34 | 35.54288 | 139.79901 | 30 ft | 21 kts | 150° |
| 2026-04-21 15:34 | 35.54158 | 139.79997 | 30 ft | 23 kts | 149° |
| 2026-04-21 15:34 | 35.54015 | 139.80097 | 29 ft | 25 kts | 150° |
| 2026-04-21 15:34 | 35.53895 | 139.80186 | 30 ft | 13 kts | 149° |
| 2026-04-21 15:35 | 35.53814 | 139.80180 | 30 ft | 13 kts | 194° |
| 2026-04-21 15:35 | 35.53716 | 139.80184 | 30 ft | 15 kts | 173° |
| 2026-04-21 15:35 | 35.53608 | 139.80224 | 30 ft | 18 kts | 150° |
| 2026-04-21 15:35 | 35.53497 | 139.80306 | 30 ft | 19 kts | 149° |
| 2026-04-21 15:36 | 35.53373 | 139.80394 | 30 ft | 22 kts | 151° |
| 2026-04-21 15:36 | 35.53236 | 139.80489 | 30 ft | 23 kts | 150° |
| 2026-04-21 15:36 | 35.53103 | 139.80582 | 30 ft | 17 kts | 150° |
| 2026-04-21 15:36 | 35.52992 | 139.80651 | 30 ft | 17 kts | 174° |
| 2026-04-21 15:37 | 35.52883 | 139.80577 | 30 ft | 19 kts | 226° |
| 2026-04-21 15:37 | 35.52779 | 139.80459 | 30 ft | 21 kts | 221° |
| 2026-04-21 15:37 | 35.52660 | 139.80331 | 30 ft | 24 kts | 223° |
| 2026-04-21 15:37 | 35.52558 | 139.80224 | 29 ft | 9 kts | 202° |
| 2026-04-21 15:38 | 35.52520 | 139.80235 | 30 ft | 6 kts | 152° |
| 2026-04-21 15:38 | 35.52508 | 139.80244 | 30 ft | 0 kts | 144° |
| 2026-04-21 15:38 | 35.52482 | 139.80272 | 30 ft | 11 kts | 134° |
| 2026-04-21 15:39 | 35.52446 | 139.80368 | 30 ft | 7 kts | 66° |
| 2026-04-21 15:39 | 35.52488 | 139.80440 | 30 ft | 17 kts | 43° |
| 2026-04-21 15:39 | 35.52727 | 139.80712 | 30 ft | 89 kts | 43° |
| 2026-04-21 15:39 | 35.53379 | 139.81440 | 185 ft | 150 kts | 44° |
| 2026-04-21 15:40 | 35.54147 | 139.82322 | 1068 ft | 151 kts | 47° |
| 2026-04-21 15:40 | 35.54754 | 139.83400 | 1558 ft | 162 kts | 59° |
| 2026-04-21 15:40 | 35.55351 | 139.84707 | 1779 ft | 189 kts | 60° |
| 2026-04-21 15:40 | 35.56053 | 139.86227 | 1984 ft | 220 kts | 59° |
| 2026-04-21 15:41 | 35.56869 | 139.87943 | 2319 ft | 243 kts | 58° |
| 2026-04-21 15:41 | 35.57748 | 139.89759 | 2987 ft | 250 kts | 57° |
| 2026-04-21 15:41 | 35.58652 | 139.91599 | 3740 ft | 254 kts | 56° |
| 2026-04-21 15:41 | 35.59590 | 139.93476 | 4388 ft | 262 kts | 56° |
| 2026-04-21 15:42 | 35.60317 | 139.94705 | 4795 ft | 266 kts | 46° |
| 2026-04-21 15:42 | 35.61841 | 139.95967 | 5407 ft | 268 kts | 17° |
| 2026-04-21 15:42 | 35.63679 | 139.96342 | 6070 ft | 270 kts | 2° |
| 2026-04-21 15:42 | 35.65576 | 139.96462 | 6699 ft | 276 kts | 0° |
| 2026-04-21 15:43 | 35.68137 | 139.96585 | 7619 ft | 279 kts | 0° |
| 2026-04-21 15:43 | 35.69450 | 139.96656 | 8120 ft | 280 kts | 360° |
| 2026-04-21 15:43 | 35.71403 | 139.96768 | 8854 ft | 282 kts | 360° |
| 2026-04-21 15:43 | 35.73367 | 139.96756 | 9578 ft | 282 kts | 349° |
| 2026-04-21 15:44 | 35.75255 | 139.96163 | 10295 ft | 281 kts | 338° |
| 2026-04-21 15:44 | 35.77130 | 139.95309 | 10640 ft | 296 kts | 335° |
| 2026-04-21 15:44 | 35.79103 | 139.94356 | 10903 ft | 313 kts | 335° |
| 2026-04-21 15:44 | 35.81175 | 139.93355 | 11220 ft | 326 kts | 335° |
| 2026-04-21 15:45 | 35.83277 | 139.92345 | 11750 ft | 330 kts | 335° |
| 2026-04-21 15:45 | 35.85424 | 139.91322 | 12395 ft | 331 kts | 334° |
| 2026-04-21 15:45 | 35.87579 | 139.90302 | 13053 ft | 332 kts | 334° |
| 2026-04-21 15:45 | 35.89740 | 139.89282 | 13707 ft | 333 kts | 334° |
| 2026-04-21 15:46 | 35.91913 | 139.88261 | 14265 ft | 335 kts | 334° |
| 2026-04-21 15:46 | 35.94101 | 139.87235 | 14766 ft | 338 kts | 333° |
| 2026-04-21 15:46 | 35.96313 | 139.86226 | 15265 ft | 342 kts | 335° |
| 2026-04-21 15:46 | 35.98695 | 139.85662 | 15742 ft | 358 kts | 349° |
| 2026-04-21 15:47 | 36.01226 | 139.86053 | 16216 ft | 378 kts | 7° |
| 2026-04-21 15:47 | 36.03748 | 139.87115 | 16649 ft | 387 kts | 12° |
| 2026-04-21 15:47 | 36.06277 | 139.88326 | 17066 ft | 392 kts | 13° |
| 2026-04-21 15:47 | 36.08832 | 139.89565 | 17498 ft | 397 kts | 12° |
| 2026-04-21 15:48 | 36.11427 | 139.90740 | 17901 ft | 396 kts | 7° |
| 2026-04-21 15:48 | 36.14092 | 139.91503 | 18324 ft | 391 kts | 359° |
| 2026-04-21 15:48 | 36.16783 | 139.91913 | 18720 ft | 388 kts | 354° |
| 2026-04-21 15:48 | 36.19479 | 139.92147 | 19140 ft | 389 kts | 353° |
| 2026-04-21 15:49 | 36.22183 | 139.92355 | 19551 ft | 390 kts | 353° |
| 2026-04-21 15:49 | 36.24902 | 139.92540 | 19967 ft | 392 kts | 352° |
| 2026-04-21 15:49 | 36.27631 | 139.92709 | 20379 ft | 394 kts | 352° |
| 2026-04-21 15:49 | 36.30372 | 139.92869 | 20784 ft | 396 kts | 352° |
| 2026-04-21 15:50 | 36.33131 | 139.93025 | 21184 ft | 398 kts | 352° |
| 2026-04-21 15:50 | 36.35904 | 139.93182 | 21592 ft | 400 kts | 352° |
| 2026-04-21 15:50 | 36.38689 | 139.93340 | 21994 ft | 402 kts | 352° |
| 2026-04-21 15:50 | 36.41488 | 139.93500 | 22393 ft | 404 kts | 352° |
| 2026-04-21 15:51 | 36.44304 | 139.93661 | 22770 ft | 406 kts | 352° |
| 2026-04-21 15:51 | 36.47137 | 139.93825 | 23139 ft | 409 kts | 352° |
| 2026-04-21 15:51 | 36.49987 | 139.93991 | 23519 ft | 411 kts | 352° |
| 2026-04-21 15:51 | 36.52854 | 139.94158 | 23847 ft | 414 kts | 351° |
| 2026-04-21 15:52 | 36.55736 | 139.94327 | 24169 ft | 415 kts | 351° |
| 2026-04-21 15:52 | 36.58629 | 139.94497 | 24491 ft | 417 kts | 351° |
| 2026-04-21 15:52 | 36.61532 | 139.94667 | 24818 ft | 419 kts | 351° |
| 2026-04-21 15:52 | 36.64447 | 139.94839 | 25150 ft | 420 kts | 351° |
| 2026-04-21 15:53 | 36.67371 | 139.95011 | 25491 ft | 421 kts | 350° |
| 2026-04-21 15:53 | 36.70308 | 139.95183 | 25823 ft | 423 kts | 350° |
| 2026-04-21 15:53 | 36.73255 | 139.95356 | 26150 ft | 425 kts | 350° |
| 2026-04-21 15:53 | 36.76218 | 139.95529 | 26494 ft | 427 kts | 350° |
| 2026-04-21 15:54 | 36.79193 | 139.95703 | 26840 ft | 429 kts | 349° |
| 2026-04-21 15:54 | 36.82185 | 139.95878 | 27208 ft | 431 kts | 349° |
| 2026-04-21 15:54 | 36.85148 | 139.96053 | 27578 ft | 433 kts | 349° |
| 2026-04-21 15:54 | 36.88192 | 139.96459 | 27933 ft | 447 kts | 355° |
| 2026-04-21 15:55 | 36.91275 | 139.97115 | 28299 ft | 452 kts | 356° |
| 2026-04-21 15:55 | 36.94382 | 139.97857 | 28657 ft | 457 kts | 357° |
| 2026-04-21 15:55 | 36.97508 | 139.98652 | 29018 ft | 460 kts | 358° |
| 2026-04-21 15:55 | 37.00656 | 139.99479 | 29377 ft | 464 kts | 358° |
| 2026-04-21 15:56 | 37.03822 | 140.00319 | 29745 ft | 467 kts | 358° |
| 2026-04-21 15:56 | 37.07008 | 140.01170 | 30125 ft | 469 kts | 358° |
| 2026-04-21 15:56 | 37.10210 | 140.02013 | 30457 ft | 472 kts | 358° |
| 2026-04-21 15:56 | 37.13432 | 140.02851 | 30781 ft | 474 kts | 358° |
| 2026-04-21 15:57 | 37.16671 | 140.03689 | 31132 ft | 476 kts | 357° |
| 2026-04-21 15:57 | 37.19917 | 140.04528 | 31515 ft | 477 kts | 357° |
| 2026-04-21 15:57 | 37.23177 | 140.05371 | 31870 ft | 479 kts | 357° |
| 2026-04-21 15:57 | 37.26451 | 140.06218 | 32238 ft | 481 kts | 357° |
| 2026-04-21 15:58 | 37.29734 | 140.07068 | 32632 ft | 483 kts | 357° |
| 2026-04-21 15:58 | 37.33029 | 140.07922 | 32961 ft | 485 kts | 357° |
| 2026-04-21 15:58 | 37.36329 | 140.08782 | 33094 ft | 478 kts | 357° |
| 2026-04-21 15:58 | 37.39521 | 140.09641 | 33106 ft | 462 kts | 357° |
| 2026-04-21 15:59 | 37.45711 | 140.11288 | 33095 ft | 452 kts | 356° |
| 2026-04-21 15:59 | 37.51884 | 140.12870 | 33089 ft | 453 kts | 356° |
| 2026-04-21 16:00 | 37.58066 | 140.14466 | 33100 ft | 454 kts | 356° |
| 2026-04-21 16:00 | 37.64250 | 140.16078 | 33084 ft | 454 kts | 356° |
| 2026-04-21 16:01 | 37.70435 | 140.17684 | 33079 ft | 453 kts | 355° |
| 2026-04-21 16:01 | 37.76611 | 140.19269 | 33073 ft | 453 kts | 355° |
| 2026-04-21 16:02 | 37.79739 | 140.20068 | 33004 ft | 465 kts | 355° |
| 2026-04-21 16:02 | 37.82965 | 140.20879 | 32953 ft | 480 kts | 356° |
| 2026-04-21 16:02 | 37.86288 | 140.21726 | 32894 ft | 495 kts | 356° |
| 2026-04-21 16:02 | 37.89703 | 140.22619 | 32807 ft | 505 kts | 357° |
| 2026-04-21 16:03 | 37.93100 | 140.23537 | 32565 ft | 507 kts | 358° |
| 2026-04-21 16:03 | 37.96544 | 140.24482 | 32248 ft | 505 kts | 358° |
| 2026-04-21 16:03 | 37.99999 | 140.25437 | 31696 ft | 499 kts | 358° |
| 2026-04-21 16:03 | 38.03332 | 140.26350 | 31096 ft | 495 kts | 357° |
| 2026-04-21 16:04 | 38.06686 | 140.27256 | 30485 ft | 491 kts | 357° |
| 2026-04-21 16:04 | 38.10019 | 140.28146 | 29835 ft | 488 kts | 357° |
| 2026-04-21 16:04 | 38.13326 | 140.29023 | 29188 ft | 483 kts | 357° |
| 2026-04-21 16:04 | 38.16601 | 140.29887 | 28585 ft | 478 kts | 357° |
| 2026-04-21 16:05 | 38.19843 | 140.30740 | 27979 ft | 473 kts | 357° |
| 2026-04-21 16:05 | 38.23050 | 140.31584 | 27407 ft | 469 kts | 357° |
| 2026-04-21 16:05 | 38.26230 | 140.32423 | 26821 ft | 465 kts | 357° |
| 2026-04-21 16:05 | 38.29381 | 140.33260 | 26237 ft | 461 kts | 357° |
| 2026-04-21 16:06 | 38.32504 | 140.34094 | 25647 ft | 457 kts | 357° |
| 2026-04-21 16:06 | 38.35598 | 140.34920 | 25079 ft | 452 kts | 357° |
| 2026-04-21 16:06 | 38.38644 | 140.35451 | 24497 ft | 430 kts | 348° |
| 2026-04-21 16:06 | 38.41579 | 140.35397 | 23935 ft | 416 kts | 343° |
| 2026-04-21 16:07 | 38.44439 | 140.35156 | 23347 ft | 408 kts | 341° |
| 2026-04-21 16:07 | 38.47230 | 140.34806 | 22772 ft | 399 kts | 340° |
| 2026-04-21 16:07 | 38.49959 | 140.34405 | 22245 ft | 391 kts | 339° |
| 2026-04-21 16:07 | 38.52637 | 140.33990 | 21723 ft | 385 kts | 340° |
| 2026-04-21 16:08 | 38.57893 | 140.33184 | 20693 ft | 375 kts | 341° |
| 2026-04-21 16:08 | 38.60474 | 140.32809 | 20169 ft | 372 kts | 341° |
| 2026-04-21 16:08 | 38.63033 | 140.32442 | 19632 ft | 369 kts | 342° |
| 2026-04-21 16:09 | 38.65574 | 140.32087 | 19118 ft | 366 kts | 342° |
| 2026-04-21 16:09 | 38.68102 | 140.31737 | 18598 ft | 364 kts | 343° |
| 2026-04-21 16:09 | 38.70617 | 140.31385 | 18038 ft | 363 kts | 343° |
| 2026-04-21 16:09 | 38.73114 | 140.31037 | 17487 ft | 360 kts | 343° |
| 2026-04-21 16:10 | 38.75592 | 140.30693 | 16959 ft | 357 kts | 344° |
| 2026-04-21 16:10 | 38.78048 | 140.30354 | 16446 ft | 353 kts | 344° |
| 2026-04-21 16:10 | 38.80483 | 140.30016 | 15935 ft | 351 kts | 345° |
| 2026-04-21 16:10 | 38.82900 | 140.29681 | 15427 ft | 348 kts | 345° |
| 2026-04-21 16:11 | 38.85301 | 140.29348 | 14881 ft | 347 kts | 345° |
| 2026-04-21 16:11 | 38.87697 | 140.29014 | 14320 ft | 346 kts | 346° |
| 2026-04-21 16:11 | 38.90091 | 140.28679 | 13703 ft | 346 kts | 346° |
| 2026-04-21 16:11 | 38.92456 | 140.28355 | 13066 ft | 346 kts | 347° |
| 2026-04-21 16:12 | 38.94070 | 140.28141 | 12674 ft | 344 kts | 347° |
| 2026-04-21 16:12 | 38.97203 | 140.27733 | 11935 ft | 340 kts | 347° |
| 2026-04-21 16:12 | 38.99542 | 140.27429 | 11359 ft | 335 kts | 347° |
| 2026-04-21 16:12 | 39.01831 | 140.27138 | 10993 ft | 323 kts | 347° |
| 2026-04-21 16:13 | 39.03998 | 140.26846 | 10877 ft | 304 kts | 346° |
| 2026-04-21 16:13 | 39.06029 | 140.26565 | 10759 ft | 283 kts | 345° |
| 2026-04-21 16:13 | 39.07923 | 140.26313 | 10667 ft | 266 kts | 345° |
| 2026-04-21 16:13 | 39.09729 | 140.26062 | 10562 ft | 257 kts | 345° |
| 2026-04-21 16:14 | 39.11484 | 140.25817 | 10453 ft | 252 kts | 344° |
| 2026-04-21 16:14 | 39.13240 | 140.25565 | 10282 ft | 255 kts | 344° |
| 2026-04-21 16:14 | 39.15000 | 140.25304 | 9972 ft | 254 kts | 344° |
| 2026-04-21 16:14 | 39.16777 | 140.25036 | 9659 ft | 265 kts | 344° |
| 2026-04-21 16:15 | 39.18648 | 140.24747 | 9490 ft | 274 kts | 344° |
| 2026-04-21 16:15 | 39.20547 | 140.24462 | 9133 ft | 275 kts | 344° |
| 2026-04-21 16:15 | 39.22455 | 140.24188 | 8676 ft | 276 kts | 344° |
| 2026-04-21 16:15 | 39.24363 | 140.23918 | 8338 ft | 276 kts | 344° |
| 2026-04-21 16:16 | 39.26266 | 140.23651 | 8026 ft | 275 kts | 344° |
| 2026-04-21 16:16 | 39.28198 | 140.23589 | 7703 ft | 285 kts | 358° |
| 2026-04-21 16:16 | 39.30134 | 140.24399 | 7397 ft | 300 kts | 18° |
| 2026-04-21 16:16 | 39.31965 | 140.25721 | 7055 ft | 302 kts | 23° |
| 2026-04-21 16:17 | 39.33773 | 140.27128 | 6733 ft | 303 kts | 24° |
| 2026-04-21 16:17 | 39.35573 | 140.28529 | 6420 ft | 301 kts | 24° |
| 2026-04-21 16:17 | 39.37371 | 140.29915 | 6091 ft | 301 kts | 23° |
| 2026-04-21 16:17 | 39.39166 | 140.31290 | 5773 ft | 299 kts | 23° |
| 2026-04-21 16:18 | 39.40960 | 140.32658 | 5464 ft | 299 kts | 23° |
| 2026-04-21 16:18 | 39.42727 | 140.34002 | 5171 ft | 299 kts | 24° |
| 2026-04-21 16:18 | 39.44517 | 140.35363 | 4876 ft | 298 kts | 24° |
| 2026-04-21 16:18 | 39.46304 | 140.36719 | 4576 ft | 297 kts | 24° |
| 2026-04-21 16:19 | 39.48082 | 140.38068 | 4309 ft | 294 kts | 25° |
| 2026-04-21 16:19 | 39.49805 | 140.39385 | 4174 ft | 282 kts | 25° |
| 2026-04-21 16:19 | 39.51507 | 140.40458 | 4107 ft | 262 kts | 9° |
| 2026-04-21 16:19 | 39.53255 | 140.40757 | 3988 ft | 248 kts | 355° |
| 2026-04-21 16:20 | 39.54946 | 140.40873 | 3872 ft | 241 kts | 359° |
| 2026-04-21 16:20 | 39.56564 | 140.41254 | 3687 ft | 229 kts | 5° |
| 2026-04-21 16:20 | 39.58067 | 140.41460 | 3398 ft | 206 kts | 343° |
| 2026-04-21 16:20 | 39.59173 | 140.40641 | 3199 ft | 169 kts | 301° |
| 2026-04-21 16:21 | 39.59731 | 140.39401 | 2981 ft | 153 kts | 285° |
| 2026-04-21 16:21 | 39.60106 | 140.38135 | 2738 ft | 149 kts | 276° |
| 2026-04-21 16:21 | 39.60200 | 140.36838 | 2538 ft | 142 kts | 266° |
| 2026-04-21 16:21 | 39.60311 | 140.35568 | 2319 ft | 141 kts | 270° |
| 2026-04-21 16:22 | 39.60400 | 140.34732 | 2189 ft | 141 kts | 270° |
| 2026-04-21 16:22 | 39.60558 | 140.33032 | 1940 ft | 142 kts | 269° |
| 2026-04-21 16:22 | 39.60644 | 140.31750 | 1741 ft | 143 kts | 268° |
| 2026-04-21 16:22 | 39.60740 | 140.30476 | 1529 ft | 140 kts | 269° |
| 2026-04-21 16:23 | 39.60884 | 140.29254 | 1292 ft | 134 kts | 273° |
| 2026-04-21 16:23 | 39.61018 | 140.28071 | 1053 ft | 130 kts | 274° |
| 2026-04-21 16:23 | 39.61133 | 140.26900 | 848 ft | 131 kts | 270° |
| 2026-04-21 16:23 | 39.61223 | 140.25714 | 664 ft | 131 kts | 270° |
| 2026-04-21 16:24 | 39.61320 | 140.24528 | 548 ft | 135 kts | 272° |
| 2026-04-21 16:24 | 39.61434 | 140.23346 | 406 ft | 130 kts | 271° |
| 2026-04-21 16:24 | 39.61537 | 140.22197 | 320 ft | 122 kts | 271° |
| 2026-04-21 16:24 | 39.61615 | 140.21287 | 312 ft | 82 kts | 277° |
| 2026-04-21 16:25 | 39.61669 | 140.20702 | 308 ft | 53 kts | 277° |
| 2026-04-21 16:25 | 39.61654 | 140.20460 | 305 ft | 12 kts | 221° |
| 2026-04-21 16:25 | 39.61621 | 140.20433 | 306 ft | 0 kts | 203° |
| 2026-04-21 16:25 | 39.61611 | 140.20428 | 306 ft | 5 kts | 202° |
| 2026-04-21 16:26 | 39.61574 | 140.20428 | 305 ft | 5 kts | 166° |
| 2026-04-21 16:26 | 39.61541 | 140.20457 | 306 ft | 6 kts | 136° |
| 2026-04-21 16:26 | 39.61517 | 140.20514 | 309 ft | 8 kts | 104° |
| 2026-04-21 16:26 | 39.61514 | 140.20585 | 309 ft | 9 kts | 96° |
| 2026-04-21 16:27 | 39.61505 | 140.20679 | 307 ft | 12 kts | 97° |
| 2026-04-21 16:27 | 39.61494 | 140.20800 | 311 ft | 15 kts | 96° |
| 2026-04-21 16:27 | 39.61482 | 140.20946 | 310 ft | 18 kts | 96° |
| 2026-04-21 16:27 | 39.61469 | 140.21094 | 311 ft | 15 kts | 96° |
| 2026-04-21 16:28 | 39.61455 | 140.21244 | 313 ft | 18 kts | 97° |
| 2026-04-21 16:28 | 39.61444 | 140.21361 | 316 ft | 0 kts | 96° |
| 2026-04-21 16:29 | 39.61444 | 140.21366 | 316 ft | 3 kts | 96° |
| 2026-04-21 16:29 | 39.61437 | 140.21441 | 314 ft | 10 kts | 96° |
| 2026-04-21 16:29 | 39.61427 | 140.21549 | 314 ft | 14 kts | 96° |
| 2026-04-21 16:29 | 39.61415 | 140.21680 | 316 ft | 16 kts | 97° |
| 2026-04-21 16:30 | 39.61401 | 140.21831 | 317 ft | 16 kts | 97° |
| 2026-04-21 16:30 | 39.61381 | 140.21923 | 317 ft | 16 kts | 121° |
| 2026-04-21 16:30 | 39.61285 | 140.22000 | 318 ft | 7 kts | 175° |
| 2026-04-21 16:30 | 39.61267 | 140.22000 | 318 ft | 2 kts | 178° |
| 2026-04-21 16:31 | 39.61248 | 140.22001 | 317 ft | 2 kts | 179° |
| 2026-04-21 16:31 | 39.61242 | 140.22001 | 320 ft | 0 kts | 180° |
| 2026-04-21 16:31 | 39.61241 | 140.22001 | 321 ft | 0 kts | 180° |